createdAt,value
2019-01-06T00:02:13.412Z,20.50
2019-01-06T00:04:59.336Z,18.00
2019-01-06T00:07:36.064Z,17.00
2019-01-06T00:10:15.059Z,18.13
2019-01-06T00:12:48.914Z,16.40
2019-01-06T00:15:28.954Z,21.33
2019-01-06T00:18:16.372Z,21.10
2019-01-06T00:21:03.941Z,22.33
2019-01-06T00:23:51.095Z,19.37
2019-01-06T00:26:22.017Z,22.90
2019-01-06T00:29:09.210Z,17.97
2019-01-06T00:31:40.396Z,27.57
2019-01-06T00:34:11.306Z,18.30
2019-01-06T00:36:58.551Z,20.73
2019-01-06T00:39:45.706Z,17.80
2019-01-06T00:42:16.622Z,20.27
2019-01-06T00:44:53.544Z,19.20
2019-01-06T00:47:33.206Z,21.83
2019-01-06T00:50:16.175Z,18.50
2019-01-06T00:53:02.491Z,16.13
2019-01-06T00:55:36.113Z,19.70
2019-01-06T00:58:09.759Z,18.57
2019-01-06T01:00:46.105Z,18.10
2019-01-06T01:03:32.521Z,15.90
2019-01-06T01:06:21.792Z,14.97
2019-01-06T01:09:09.358Z,14.70
2019-01-06T01:11:40.232Z,14.53
2019-01-06T01:14:22.886Z,13.37
2019-01-06T01:17:11.993Z,15.77
2019-01-06T01:19:58.281Z,13.40
2019-01-06T01:22:38.124Z,15.63
2019-01-06T01:25:22.022Z,14.87
2019-01-06T01:28:04.931Z,14.57
2019-01-06T01:30:51.993Z,17.10
2019-01-06T01:33:40.935Z,18.47
2019-01-06T01:36:14.787Z,14.43
2019-01-06T01:38:45.691Z,17.47
2019-01-06T01:41:19.279Z,16.40
2019-01-06T01:43:56.325Z,14.27
2019-01-06T01:46:27.222Z,13.87
2019-01-06T01:49:14.366Z,15.90
2019-01-06T01:52:03.608Z,16.27
2019-01-06T01:54:37.743Z,19.27
2019-01-06T01:57:23.426Z,14.30
2019-01-06T02:00:03.130Z,15.73
2019-01-06T02:02:45.887Z,15.37
2019-01-06T02:05:19.406Z,18.07
2019-01-06T02:07:50.298Z,15.77
2019-01-06T02:10:21.569Z,12.17
2019-01-06T02:12:52.763Z,16.00
2019-01-06T02:15:38.635Z,12.87
2019-01-06T02:18:24.826Z,13.30
2019-01-06T02:21:01.456Z,11.03
2019-01-06T02:23:48.642Z,13.73
2019-01-06T02:26:22.482Z,12.33
2019-01-06T02:32:01.672Z,14.17
2019-01-06T02:34:32.562Z,11.70
2019-01-06T02:37:09.175Z,12.80
2019-01-06T02:39:59.306Z,10.73
2019-01-06T02:42:48.738Z,12.60
2019-01-06T02:45:35.997Z,14.73
2019-01-06T02:48:19.283Z,12.87
2019-01-06T02:50:56.156Z,14.33
2019-01-06T02:53:43.164Z,13.87
2019-01-06T02:56:14.046Z,13.10
2019-01-06T02:58:57.014Z,11.63
2019-01-06T03:01:43.259Z,11.67
2019-01-06T03:04:14.192Z,13.97
2019-01-06T03:06:59.982Z,14.20
2019-01-06T03:09:31.170Z,12.73
2019-01-06T03:12:18.391Z,11.70
2019-01-06T03:14:55.565Z,12.17
2019-01-06T03:17:26.468Z,12.00
2019-01-06T03:20:12.615Z,13.10
2019-01-06T03:22:49.726Z,12.67
2019-01-06T03:25:21.361Z,13.47
2019-01-06T03:27:52.242Z,13.13
2019-01-06T03:30:31.978Z,11.83
2019-01-06T03:33:08.470Z,13.17
2019-01-06T03:35:42.120Z,13.73
2019-01-06T03:38:13.038Z,12.27
2019-01-06T03:41:00.742Z,12.73
2019-01-06T03:43:49.738Z,11.30
2019-01-06T03:46:37.111Z,11.87
2019-01-06T03:49:16.607Z,12.03
2019-01-06T03:51:50.889Z,13.27
2019-01-06T03:54:39.371Z,13.67
2019-01-06T03:57:26.404Z,10.87
2019-01-06T04:00:03.521Z,10.97
2019-01-06T04:02:41.084Z,11.67
2019-01-06T04:05:27.010Z,14.90
2019-01-06T04:07:58.247Z,12.90
2019-01-06T04:10:34.915Z,13.30
2019-01-06T04:13:14.936Z,11.37
2019-01-06T04:16:02.172Z,9.30
2019-01-06T04:18:39.069Z,10.53
2019-01-06T04:21:09.990Z,11.73
2019-01-06T04:23:40.965Z,12.47
2019-01-06T04:26:14.883Z,10.37
2019-01-06T04:29:00.835Z,9.87
2019-01-06T04:31:31.736Z,12.90
2019-01-06T04:34:02.594Z,10.97
2019-01-06T04:36:36.471Z,11.67
2019-01-06T04:39:08.652Z,11.03
2019-01-06T04:41:55.947Z,12.37
2019-01-06T04:44:36.038Z,10.70
2019-01-06T04:47:06.930Z,10.60
2019-01-06T04:49:43.678Z,12.93
2019-01-06T04:52:20.320Z,10.53
2019-01-06T04:55:00.162Z,11.73
2019-01-06T04:57:31.095Z,13.23
2019-01-06T05:00:18.376Z,17.27
2019-01-06T05:03:05.707Z,13.30
2019-01-06T05:05:39.526Z,14.63
2019-01-06T05:08:28.715Z,13.43
2019-01-06T05:11:17.647Z,12.20
2019-01-06T05:13:57.415Z,14.67
2019-01-06T05:16:31.288Z,13.97
2019-01-06T05:19:17.407Z,12.83
2019-01-06T05:21:57.433Z,12.63
2019-01-06T05:24:44.193Z,16.17
2019-01-06T05:27:18.127Z,15.63
2019-01-06T05:29:48.956Z,16.10
2019-01-06T05:32:19.866Z,17.10
2019-01-06T05:34:56.570Z,18.00
2019-01-06T05:37:44.225Z,17.87
2019-01-06T05:40:17.998Z,17.93
2019-01-06T05:43:01.195Z,18.27
2019-01-06T05:45:32.076Z,14.93
2019-01-06T05:48:14.917Z,17.03
2019-01-06T05:50:54.855Z,17.33
2019-01-06T05:53:41.091Z,19.87
2019-01-06T05:56:24.070Z,15.63
2019-01-06T05:58:54.989Z,16.63
2019-01-06T06:01:28.817Z,18.87
2019-01-06T06:04:15.898Z,19.07
2019-01-06T06:07:11.049Z,18.57
2019-01-06T06:09:35.500Z,16.33
2019-01-06T06:12:09.361Z,15.80
2019-01-06T06:14:40.252Z,15.87
2019-01-06T06:17:29.160Z,13.87
2019-01-06T06:20:00.118Z,17.13
2019-01-06T06:22:33.563Z,15.53
2019-01-06T06:25:20.759Z,15.90
2019-01-06T06:27:54.558Z,18.33
2019-01-06T06:30:41.502Z,15.43
2019-01-06T06:33:15.352Z,16.43
2019-01-06T06:36:01.180Z,17.60
2019-01-06T06:38:50.012Z,19.07
2019-01-06T06:41:37.228Z,16.40
2019-01-06T06:44:08.128Z,19.23
2019-01-06T06:46:55.376Z,14.40
2019-01-06T06:49:35.375Z,17.23
2019-01-06T06:52:23.045Z,16.70
2019-01-06T06:54:53.945Z,15.87
2019-01-06T06:58:19.052Z,16.57
2019-01-06T07:01:16.651Z,15.20
2019-01-06T07:03:48.708Z,18.13
2019-01-06T07:06:19.601Z,16.93
2019-01-06T07:08:59.366Z,19.73
2019-01-06T07:11:30.264Z,16.23
2019-01-06T07:14:19.621Z,17.47
2019-01-06T07:17:26.717Z,17.53
2019-01-06T07:20:14.186Z,19.50
2019-01-06T07:22:53.919Z,17.27
2019-01-06T07:25:27.533Z,17.63
2019-01-06T07:28:13.820Z,17.17
2019-01-06T07:30:51.018Z,17.03
2019-01-06T07:33:21.911Z,17.43
2019-01-06T07:35:52.803Z,19.20
2019-01-06T07:38:35.919Z,17.27
2019-01-06T07:41:12.841Z,16.07
2019-01-06T07:43:55.813Z,20.67
2019-01-06T07:46:29.631Z,17.77
2019-01-06T07:49:16.625Z,19.67
2019-01-06T07:51:53.494Z,18.77
2019-01-06T07:54:40.673Z,20.57
2019-01-06T07:57:28.062Z,19.97
2019-01-06T08:00:15.374Z,20.03
2019-01-06T08:02:46.949Z,20.50
2019-01-06T08:05:21.060Z,20.70
2019-01-06T08:08:01.207Z,20.57
2019-01-06T08:10:48.454Z,21.83
2019-01-06T08:13:35.815Z,21.33
2019-01-06T08:16:12.804Z,19.33
2019-01-06T08:18:59.865Z,24.93
2019-01-06T08:21:30.760Z,19.93
2019-01-06T08:24:17.224Z,24.33
2019-01-06T08:27:04.118Z,21.63
2019-01-06T08:29:37.799Z,22.10
2019-01-06T08:32:08.634Z,23.80
2019-01-06T08:34:55.539Z,22.53
2019-01-06T08:37:41.400Z,25.03
2019-01-06T08:40:28.502Z,25.63
2019-01-06T08:43:14.653Z,25.03
2019-01-06T08:46:01.831Z,23.63
2019-01-06T08:48:51.084Z,23.03
2019-01-06T08:51:22.020Z,23.60
2019-01-06T08:54:11.026Z,26.47
2019-01-06T08:56:57.462Z,23.90
2019-01-06T08:59:34.187Z,28.23
2019-01-06T09:05:45.397Z,25.63
2019-01-06T09:08:32.465Z,25.77
2019-01-06T09:11:06.181Z,27.23
2019-01-06T09:13:43.047Z,22.03
2019-01-06T09:16:30.132Z,27.03
2019-01-06T09:19:17.414Z,23.70
2019-01-06T09:22:04.724Z,24.17
2019-01-06T09:24:52.065Z,24.53
2019-01-06T09:27:34.943Z,30.43
2019-01-06T09:30:07.518Z,31.67
2019-01-06T09:32:50.736Z,26.13
2019-01-06T09:35:37.723Z,25.73
2019-01-06T09:38:20.793Z,23.37
2019-01-06T09:41:06.999Z,28.70
2019-01-06T09:43:37.932Z,27.93
2019-01-06T09:46:25.121Z,24.37
2019-01-06T09:49:11.019Z,26.70
2019-01-06T09:51:47.881Z,25.67
2019-01-06T09:54:30.831Z,30.30
2019-01-06T09:57:01.734Z,31.10
2019-01-06T09:59:50.922Z,31.97
2019-01-06T10:02:34.018Z,32.03
2019-01-06T10:05:08.539Z,30.23
2019-01-06T10:07:45.403Z,30.33
2019-01-06T10:10:16.330Z,31.40
2019-01-06T10:12:47.309Z,34.03
2019-01-06T10:15:34.209Z,30.37
2019-01-06T10:18:20.251Z,29.27
2019-01-06T10:21:07.497Z,29.80
2019-01-06T10:23:54.801Z,28.53
2019-01-06T10:26:28.598Z,29.00
2019-01-06T10:28:59.554Z,32.80
2019-01-06T10:31:39.617Z,31.47
2019-01-06T10:34:28.294Z,32.13
2019-01-06T10:37:15.183Z,29.10
2019-01-06T10:39:55.194Z,30.03
2019-01-06T10:42:28.881Z,31.43
2019-01-06T10:45:05.764Z,35.17
2019-01-06T10:47:48.203Z,33.77
2019-01-06T10:50:37.321Z,34.00
2019-01-06T10:53:08.325Z,33.87
2019-01-06T10:55:44.979Z,34.17
2019-01-06T10:58:15.927Z,34.60
2019-01-06T11:01:03.344Z,30.27
2019-01-06T11:03:37.191Z,33.00
2019-01-06T11:06:20.006Z,33.43
2019-01-06T11:09:07.453Z,33.87
2019-01-06T11:11:44.293Z,31.53
2019-01-06T11:14:21.077Z,38.17
2019-01-06T11:17:10.054Z,35.47
2019-01-06T11:19:50.346Z,31.87
2019-01-06T11:22:21.220Z,32.53
2019-01-06T11:25:08.685Z,37.73
2019-01-06T11:27:45.464Z,37.30
2019-01-06T11:30:17.035Z,34.60
2019-01-06T11:32:47.948Z,31.93
2019-01-06T11:35:18.845Z,38.93
2019-01-06T11:38:06.728Z,34.10
2019-01-06T11:40:56.005Z,36.03
2019-01-06T11:43:39.169Z,38.33
2019-01-06T11:46:12.820Z,37.70
2019-01-06T11:48:44.068Z,35.83
2019-01-06T11:51:45.598Z,39.67
2019-01-06T11:54:34.901Z,37.30
2019-01-06T11:57:21.979Z,33.93
2019-01-06T11:59:58.926Z,35.90
2019-01-06T12:02:29.837Z,39.27
2019-01-06T12:05:12.968Z,36.50
2019-01-06T12:07:49.860Z,36.33
2019-01-06T12:10:37.023Z,35.77
2019-01-06T12:13:24.324Z,34.47
2019-01-06T12:15:55.130Z,33.30
2019-01-06T12:18:42.533Z,33.87
2019-01-06T12:21:19.422Z,31.67
2019-01-06T12:24:08.883Z,39.00
2019-01-06T12:26:39.800Z,36.97
2019-01-06T12:29:26.874Z,35.70
2019-01-06T12:31:57.790Z,30.80
2019-01-06T12:34:37.943Z,31.63
2019-01-06T12:37:11.969Z,32.37
2019-01-06T12:39:59.015Z,29.43
2019-01-06T12:42:46.374Z,28.30
2019-01-06T12:45:17.286Z,30.13
2019-01-06T12:48:04.445Z,31.47
2019-01-06T12:50:41.368Z,36.97
2019-01-06T12:53:12.266Z,32.63
2019-01-06T12:56:02.290Z,29.73
2019-01-06T12:58:49.406Z,30.17
2019-01-06T13:01:36.916Z,27.27
2019-01-06T13:04:07.831Z,28.47
2019-01-06T13:06:59.834Z,26.47
2019-01-06T13:09:39.987Z,28.73
2019-01-06T13:12:10.937Z,29.10
2019-01-06T13:14:53.665Z,27.53
2019-01-06T13:17:30.591Z,25.17
2019-01-06T13:20:01.539Z,24.03
2019-01-06T13:22:48.664Z,25.07
2019-01-06T13:25:31.653Z,51.27
2019-01-06T13:28:05.270Z,27.57
2019-01-06T13:30:45.223Z,31.80
2019-01-06T13:33:37.706Z,24.17
2019-01-06T13:36:18.622Z,22.27
2019-01-06T13:38:52.292Z,25.90
2019-01-06T13:41:29.243Z,24.47
2019-01-06T13:44:16.632Z,19.27
2019-01-06T13:46:50.231Z,24.30
2019-01-06T13:49:37.383Z,19.73
2019-01-06T13:52:23.423Z,20.07
2019-01-06T13:55:09.685Z,20.33
2019-01-06T13:57:40.601Z,19.83
2019-01-06T14:00:21.496Z,24.20
2019-01-06T14:03:10.639Z,22.17
2019-01-06T14:05:44.532Z,23.93
2019-01-06T14:08:15.467Z,22.47
2019-01-06T14:10:58.682Z,24.43
2019-01-06T14:13:35.678Z,24.50
2019-01-06T14:16:23.231Z,25.43
2019-01-06T14:19:03.073Z,24.93
2019-01-06T14:21:37.138Z,26.97
2019-01-06T14:24:26.138Z,21.83
2019-01-06T14:26:57.288Z,27.03
2019-01-06T14:29:28.255Z,22.17
2019-01-06T14:31:59.207Z,22.73
2019-01-06T14:34:32.921Z,24.83
2019-01-06T14:37:20.155Z,24.23
2019-01-06T14:39:51.102Z,22.37
2019-01-06T14:42:32.231Z,21.70
2019-01-06T14:45:19.670Z,25.73
2019-01-06T14:47:50.726Z,24.37
2019-01-06T14:50:21.682Z,26.73
2019-01-06T14:52:58.617Z,24.50
2019-01-06T14:55:45.754Z,23.13
2019-01-06T14:58:16.661Z,22.40
2019-01-06T15:01:03.664Z,20.97
2019-01-06T15:03:37.337Z,21.17
2019-01-06T15:06:08.629Z,18.40
2019-01-06T15:08:53.898Z,19.47
2019-01-06T15:11:39.919Z,22.47
2019-01-06T15:14:14.087Z,19.77
2019-01-06T15:17:01.628Z,17.97
2019-01-06T15:19:48.848Z,22.93
2019-01-06T15:22:22.727Z,20.63
2019-01-06T15:25:05.966Z,21.67
2019-01-06T15:27:46.937Z,20.80
2019-01-06T15:30:17.879Z,19.20
2019-01-06T15:33:04.966Z,16.87
2019-01-06T15:35:43.334Z,17.90
2019-01-06T15:38:30.442Z,17.97
2019-01-06T15:41:10.274Z,23.63
2019-01-06T15:43:44.137Z,19.03
2019-01-06T15:46:22.831Z,19.17
2019-01-06T15:49:09.955Z,19.83
2019-01-06T15:52:02.934Z,22.83
2019-01-06T15:54:50.024Z,21.57
2019-01-06T15:57:30.211Z,35.33
2019-01-06T16:00:04.110Z,30.80
2019-01-06T16:02:51.463Z,30.57
2019-01-06T16:05:31.300Z,29.50
2019-01-06T16:08:14.557Z,32.33
2019-01-06T16:10:57.519Z,35.37
2019-01-06T16:13:46.240Z,32.43
2019-01-06T16:16:22.964Z,27.60
2019-01-06T16:18:53.917Z,26.20
2019-01-06T16:21:28.793Z,20.27
2019-01-06T16:24:05.764Z,21.53
2019-01-06T16:26:39.522Z,20.67
2019-01-06T16:29:16.691Z,22.23
2019-01-06T16:32:04.377Z,19.27
2019-01-06T16:34:52.059Z,20.53
2019-01-06T16:37:23.038Z,18.43
2019-01-06T16:40:02.979Z,17.00
2019-01-06T16:42:48.985Z,18.83
2019-01-06T16:45:19.882Z,17.73
2019-01-06T16:48:00.031Z,19.17
2019-01-06T16:50:34.135Z,19.67
2019-01-06T16:53:23.180Z,15.80
2019-01-06T16:56:06.468Z,17.90
2019-01-06T16:58:53.883Z,13.97
2019-01-06T17:01:41.084Z,16.03
2019-01-06T17:04:28.707Z,18.60
2019-01-06T17:06:59.621Z,14.37
2019-01-06T17:09:45.882Z,17.53
2019-01-06T17:12:32.114Z,16.60
2019-01-06T17:15:11.992Z,19.20
2019-01-06T17:17:59.004Z,17.77
2019-01-06T17:20:29.956Z,14.77
2019-01-06T17:23:16.956Z,17.37
2019-01-06T17:26:04.392Z,16.33
2019-01-06T17:28:44.149Z,16.17
2019-01-06T17:31:17.819Z,15.90
2019-01-06T17:33:48.743Z,16.93
2019-01-06T17:36:36.158Z,16.17
2019-01-06T17:39:11.567Z,17.30
2019-01-06T17:41:48.246Z,20.57
2019-01-06T17:44:34.211Z,17.73
2019-01-06T17:47:14.266Z,17.70
2019-01-06T17:49:48.297Z,21.07
2019-01-06T17:52:37.508Z,19.07
2019-01-06T17:55:26.726Z,17.87
2019-01-06T17:58:12.539Z,17.93
2019-01-06T18:00:52.235Z,22.00
2019-01-06T18:03:38.080Z,21.43
2019-01-06T18:06:09.027Z,18.13
2019-01-06T18:08:48.889Z,21.63
2019-01-06T18:11:19.843Z,22.00
2019-01-06T18:14:07.288Z,25.03
2019-01-06T18:16:41.197Z,22.03
2019-01-06T18:19:12.121Z,22.30
2019-01-06T18:21:59.887Z,20.60
2019-01-06T18:24:49.018Z,19.20
2019-01-06T18:27:20.802Z,21.77
2019-01-06T18:29:54.758Z,19.90
2019-01-06T18:32:28.958Z,23.13
2019-01-06T18:35:08.690Z,19.07
2019-01-06T18:37:39.645Z,18.63
2019-01-06T18:40:13.569Z,18.60
2019-01-06T18:43:02.998Z,26.93
2019-01-06T18:45:46.255Z,24.17
2019-01-06T18:48:17.198Z,21.70
2019-01-06T18:50:51.108Z,19.97
2019-01-06T18:53:22.031Z,29.10
2019-01-06T18:55:55.940Z,36.13
2019-01-06T18:58:32.602Z,32.97
2019-01-06T19:01:21.964Z,30.17
2019-01-06T19:04:09.166Z,24.87
2019-01-06T19:06:58.440Z,23.00
2019-01-06T19:09:41.638Z,18.67
2019-01-06T19:12:15.552Z,20.53
2019-01-06T19:15:04.769Z,22.00
2019-01-06T19:17:50.709Z,18.90
2019-01-06T19:20:21.608Z,17.83
2019-01-06T19:22:52.542Z,18.00
2019-01-06T19:25:23.775Z,18.20
2019-01-06T19:28:12.843Z,22.27
2019-01-06T19:31:01.901Z,21.53
2019-01-06T19:33:49.342Z,18.83
2019-01-06T19:36:38.385Z,16.23
2019-01-06T19:39:24.730Z,18.73
2019-01-06T19:41:55.638Z,19.93
2019-01-06T19:44:38.816Z,18.87
2019-01-06T19:47:26.171Z,30.60
2019-01-06T19:49:57.143Z,33.17
2019-01-06T19:52:44.455Z,23.00
2019-01-06T19:55:15.429Z,20.30
2019-01-06T19:58:01.652Z,17.13
2019-01-06T20:00:32.581Z,18.30
2019-01-06T20:03:12.283Z,19.30
2019-01-06T20:05:59.811Z,20.33
2019-01-06T20:08:47.128Z,22.90
2019-01-06T20:11:18.153Z,22.30
2019-01-06T20:13:51.794Z,21.87
2019-01-06T20:16:28.275Z,19.60
2019-01-06T20:19:05.208Z,22.70
2019-01-06T20:21:52.606Z,23.50
2019-01-06T20:24:39.961Z,20.43
2019-01-06T20:27:29.096Z,17.93
2019-01-06T20:30:02.752Z,17.53
2019-01-06T20:32:36.647Z,22.07
2019-01-06T20:35:10.722Z,18.93
2019-01-06T20:37:55.285Z,18.97
2019-01-06T20:40:26.224Z,20.30
2019-01-06T20:43:02.868Z,20.33
2019-01-06T20:45:47.386Z,19.63
2019-01-06T20:48:37.035Z,20.33
2019-01-06T20:51:24.295Z,22.20
2019-01-06T20:53:58.282Z,21.50
2019-01-06T20:56:45.430Z,22.40
2019-01-06T20:59:22.098Z,24.80
2019-01-06T21:02:04.931Z,25.03
2019-01-06T21:04:38.549Z,45.83
2019-01-06T21:07:24.526Z,30.57
2019-01-06T21:10:10.232Z,26.47
2019-01-06T21:12:47.131Z,21.13
2019-01-06T21:15:19.530Z,23.00
2019-01-06T21:18:07.071Z,23.60
2019-01-06T21:20:52.988Z,27.77
2019-01-06T21:23:26.790Z,23.23
2019-01-06T21:26:14.098Z,24.53
2019-01-06T21:28:44.997Z,24.17
2019-01-06T21:31:32.084Z,25.90
2019-01-06T21:34:05.996Z,24.73
2019-01-06T21:36:42.638Z,22.67
2019-01-06T21:39:30.000Z,24.63
2019-01-06T21:42:16.177Z,20.60
2019-01-06T21:44:58.907Z,26.03
2019-01-06T21:47:41.893Z,23.00
2019-01-06T21:50:18.765Z,22.07
2019-01-06T21:52:58.911Z,22.13
2019-01-06T21:55:29.875Z,24.53
2019-01-06T21:58:07.096Z,27.70
2019-01-06T22:00:38.282Z,21.10
2019-01-06T22:03:25.383Z,21.67
2019-01-06T22:06:12.872Z,25.23
2019-01-06T22:08:56.106Z,21.27
2019-01-06T22:11:43.454Z,23.13
2019-01-06T22:14:32.839Z,20.33
2019-01-06T22:17:06.529Z,19.07
2019-01-06T22:19:40.257Z,18.07
2019-01-06T22:22:12.295Z,21.63
2019-01-06T22:24:43.409Z,19.20
2019-01-06T22:27:32.696Z,20.63
2019-01-06T22:30:03.667Z,15.87
2019-01-06T22:32:50.956Z,20.00
2019-01-06T22:35:25.233Z,19.17
2019-01-06T22:37:58.909Z,22.30
2019-01-06T22:40:38.752Z,21.80
2019-01-06T22:43:21.715Z,20.90
2019-01-06T22:46:01.938Z,21.17
2019-01-06T22:48:35.894Z,21.10
2019-01-06T22:51:24.580Z,21.77
2019-01-06T22:53:55.502Z,22.27
2019-01-06T22:56:42.859Z,24.87
2019-01-06T22:59:13.739Z,23.20
2019-01-06T23:01:44.636Z,24.90
2019-01-06T23:04:18.289Z,23.40
2019-01-06T23:06:49.190Z,24.63
2019-01-06T23:09:36.542Z,26.70
2019-01-06T23:12:13.447Z,23.47
2019-01-06T23:14:44.387Z,25.93
2019-01-06T23:17:18.317Z,26.93
2019-01-06T23:19:52.408Z,24.53
2019-01-06T23:22:25.934Z,23.37
2019-01-06T23:24:56.891Z,22.67
2019-01-06T23:27:42.871Z,24.70
2019-01-06T23:30:23.004Z,21.67
2019-01-06T23:32:56.689Z,24.80
2019-01-06T23:35:31.026Z,22.97
2019-01-06T23:38:04.781Z,19.57
2019-01-06T23:40:35.667Z,21.60
2019-01-06T23:43:21.570Z,25.33
2019-01-06T23:45:58.766Z,24.93
2019-01-06T23:48:29.830Z,23.43
2019-01-06T23:51:06.874Z,20.30
2019-01-06T23:53:52.814Z,30.03
2019-01-06T23:56:38.628Z,19.97
2019-01-06T23:59:09.812Z,25.20
